Canon, Georgia
Current Conditions -  °F | °C
As of 10:55 PM on Saturday 20 Dec 2014 (Local Time) from KTOC Reporting Station
Haze Haze  
Wind Chill: 43°   Ceiling: 600
Heat Index: 43°   Visibility: 4mi
Dew Point: 42°   Wind: 0mph
Humidity: 95%   Direction: NA
Pressure: 30.23"   Gusts: NA
Location:  34.35°N, 83.11°W
Report Text: KTOC 210355Z AUTO 00000KT 4SM BR OVC006 06/06 A3023 RMK AO2 T00630056
Loading
Personal Weather Stations






























Interactive Weather Map New forecast layout! Learn more

10-Day Weather Forecast

Advertisements
Track Severe Weather on mobile